M I D A S
Marine Information and Data Acquisition System
Tripno 150 of the Zeeleeuw from 2001-08-21 06:17:17 to 2001-08-21 18:35:00
Back to CruiseResearch ActivitiesStationsMapUnderway DataData graphs

EquipmentUnitsComments
TimeDGPSUTC
LatitudeDGPSDM.mWGS84
LongitudeDGPSDM.mWGS84
SpeedMeteo Stationm/sRelative wind speed
DirectionMeteo StationdegRelative wind direction
TemperatureMeteo Stationdeg CelciusAir temperature
PressureMeteo StationPaAtmospheric pressure
HumidityMeteo Station%Relative humidity
Missing or incorrect values are displayed as -999
Metereological data collected by the RV Zeeleeuw from 2001-08-21 06:17:17 to 2001-08-21 18:35:00
Time Latitude Longitude Speed Direction Temperature Pressure Humidity
2001-08-21 06:19 51°13.678 2°55.921 1.4 344 14.6 101980 92
2001-08-21 06:20 51°13.678 2°55.922 1.9 337 14.7 101970 92
2001-08-21 06:21 51°13.678 2°55.922 1 329 14.7 101980 91
2001-08-21 06:22 51°13.678 2°55.922 1 328 14.7 101980 91
2001-08-21 06:23 51°13.678 2°55.922 1.7 333 14.7 101980 91
2001-08-21 06:24 51°13.678 2°55.922 1.5 329 14.7 101980 91
2001-08-21 06:25 51°13.678 2°55.922 1.7 336 14.7 101980 91
2001-08-21 06:26 51°13.678 2°55.923 1.6 325 14.7 101980 91
2001-08-21 06:27 51°13.678 2°55.923 0.8 317 14.7 101990 91
2001-08-21 06:28 51°13.678 2°55.923 0.9 337 14.7 101990 91
2001-08-21 06:29 51°13.678 2°55.923 0.9 305 14.8 101990 91
2001-08-21 06:30 51°13.678 2°55.923 1.1 306 14.8 101990 91
2001-08-21 06:31 51°13.678 2°55.922 1.5 330 14.8 101990 90
2001-08-21 06:32 51°13.678 2°55.922 1.7 341 14.9 101990 91
2001-08-21 06:33 51°13.678 2°55.922 0.9 337 15 101990 91
2001-08-21 06:34 51°13.678 2°55.923 1.5 293 15 101990 90
2001-08-21 06:35 51°13.678 2°55.923 0.3 329 15 101990 90
2001-08-21 06:36 51°13.677 2°55.923 0.3 331 15 101990 90
2001-08-21 06:37 51°13.677 2°55.923 0.2 317 15.1 101990 90
2001-08-21 06:38 51°13.677 2°55.923 1.7 326 15.1 101990 89
2001-08-21 06:39 51°13.677 2°55.924 1.1 296 15.1 101990 89
2001-08-21 06:40 51°13.676 2°55.924 1 291 15.1 101990 89
2001-08-21 06:41 51°13.676 2°55.923 0.7 305 15.1 101990 90
2001-08-21 06:42 51°13.686 2°55.882 1.8 188 15.2 101990 89
2001-08-21 06:43 51°13.706 2°55.794 1.2 210 15.2 101990 89
2001-08-21 06:44 51°13.711 2°55.724 1.3 208 15.2 101990 89
2001-08-21 06:45 51°13.737 2°55.733 0.4 193 15.3 101990 90
2001-08-21 06:46 51°13.734 2°55.725 0.5 84 15.4 101990 90
2001-08-21 06:47 51°13.805 2°55.662 1.9 37 15.4 101990 89
2001-08-21 06:48 51°13.877 2°55.605 0.5 353 15.5 101990 88
2001-08-21 06:49 51°13.956 2°55.549 0.7 24 15.6 101990 88
2001-08-21 06:50 51°14.036 2°55.493 2 31 15.6 101990 88
2001-08-21 06:51 51°14.121 2°55.428 2.9 13 15.7 101990 87
2001-08-21 06:52 51°14.211 2°55.338 3.2 31 15.7 102000 86
2001-08-21 06:53 51°14.304 2°55.192 3.1 13 15.7 102000 86
2001-08-21 06:54 51°14.395 2°54.996 5.9 13 15.8 102000 85
2001-08-21 06:55 51°14.418 2°54.708 8.1 18 15.9 101990 83
2001-08-21 06:56 51°14.41 2°54.358 10 14 16 101980 83
2001-08-21 06:57 51°14.319 2°54.014 10.1 18 16 101980 84
2001-08-21 06:58 51°14.216 2°53.675 9.4 14 16 101980 85
2001-08-21 06:59 51°14.091 2°53.35 9.3 15 16 101980 84
2001-08-21 07:00 51°13.976 2°53.011 9.9 11 16 101980 85
2001-08-21 07:01 51°13.855 2°52.669 10.6 16 15.9 101980 85
2001-08-21 07:02 51°13.73 2°52.329 10.8 16 16 101980 85
2001-08-21 07:03 51°13.601 2°51.995 10.2 15 15.9 101980 85
2001-08-21 07:04 51°13.482 2°51.652 10.5 17 15.9 101980 86
2001-08-21 07:05 51°13.363 2°51.308 10.3 19 15.9 101990 87
2001-08-21 07:06 51°13.249 2°50.96 10.1 19 15.9 101990 86
2001-08-21 07:07 51°13.135 2°50.61 9.8 17 15.8 101990 87
2001-08-21 07:08 51°13.023 2°50.257 9.6 21 15.8 101980 87
2001-08-21 07:09 51°12.905 2°49.908 10.4 15 15.8 101990 87
2001-08-21 07:10 51°12.783 2°49.563 10.1 17 15.8 101990 87
2001-08-21 07:11 51°12.663 2°49.216 10.2 17 15.8 101990 87
2001-08-21 07:12 51°12.543 2°48.872 9.9 17 15.7 101990 87
2001-08-21 07:13 51°12.429 2°48.522 10.2 13 15.7 101990 87
2001-08-21 07:14 51°12.321 2°48.167 9.6 13 15.7 101980 86
2001-08-21 07:15 51°12.217 2°47.81 9.4 18 15.7 101980 86
2001-08-21 07:16 51°12.108 2°47.457 9 9 15.7 101990 87
2001-08-21 07:17 51°12.008 2°47.097 9.2 13 15.9 101980 88
2001-08-21 07:18 51°11.911 2°46.734 9.6 13 15.9 101980 87
2001-08-21 07:19 51°11.807 2°46.375 9.6 12 15.9 101980 88
2001-08-21 07:20 51°11.701 2°46.017 8.2 10 15.9 101980 87
2001-08-21 07:21 51°11.603 2°45.654 8.1 11 15.9 101980 87
2001-08-21 07:22 51°11.508 2°45.29 7.9 14 15.9 101980 87
2001-08-21 07:23 51°11.409 2°44.928 8.1 14 16 101980 87
2001-08-21 07:24 51°11.313 2°44.565 7.4 6 16.1 101980 86
2001-08-21 07:25 51°11.22 2°44.2 8.9 11 16.1 101980 86
2001-08-21 07:26 51°11.132 2°43.832 8.9 15 16.1 101980 86
2001-08-21 07:27 51°11.057 2°43.458 8.3 13 16.2 101980 86
2001-08-21 07:28 51°10.983 2°43.084 8.7 14 16.2 101990 85
2001-08-21 07:29 51°10.9 2°42.714 8.3 13 16.2 101980 85
2001-08-21 07:30 51°10.819 2°42.345 8.1 11 16.2 101980 86
2001-08-21 07:31 51°10.731 2°41.979 9.5 14 16.2 101980 86
2001-08-21 07:32 51°10.639 2°41.615 9.2 11 16.2 101980 86
2001-08-21 07:33 51°10.552 2°41.249 8.4 11 16.3 101980 86
2001-08-21 07:34 51°10.463 2°40.884 9.2 12 16.4 101980 87
2001-08-21 07:35 51°10.369 2°40.52 10.2 9 16.4 101980 86
2001-08-21 07:36 51°10.28 2°40.156 10.9 12 16.5 101980 86
2001-08-21 07:37 51°10.187 2°39.793 10 13 16.5 101970 86
2001-08-21 07:38 51°10.098 2°39.428 9.7 12 16.5 101970 86
2001-08-21 07:39 51°10.008 2°39.063 10.6 12 16.6 101980 86
2001-08-21 07:40 51°9.915 2°38.701 10.3 11 16.6 101970 85
2001-08-21 07:41 51°9.823 2°38.337 10.8 10 16.7 101970 85
2001-08-21 07:42 51°9.732 2°37.973 10.5 9 16.7 101970 84
2001-08-21 07:43 51°9.638 2°37.61 10.5 13 16.7 101960 84
2001-08-21 07:44 51°9.547 2°37.244 10.1 13 16.8 101970 84
2001-08-21 07:45 51°9.452 2°36.879 10.5 12 16.8 101960 85
2001-08-21 07:46 51°9.358 2°36.512 10.9 11 16.8 101960 84
2001-08-21 07:47 51°9.279 2°36.198 7.5 16 16.8 101970 84
2001-08-21 07:48 51°9.251 2°36.065 0.4 11 16.8 101970 85
2001-08-21 07:49 51°9.236 2°36.039 1.4 107 16.8 101980 84
2001-08-21 07:50 51°9.224 2°36.012 0.3 97 16.8 101980 84
2001-08-21 07:51 51°9.213 2°35.983 0.7 107 16.9 101980 85
2001-08-21 07:52 51°9.204 2°35.952 0.2 96 16.9 101980 85
2001-08-21 07:53 51°9.198 2°35.916 0.1 132 17 101980 85
2001-08-21 07:54 51°9.243 2°35.81 0.8 253 17 101980 85
2001-08-21 07:55 51°9.31 2°35.713 0.6 291 17 101980 84
2001-08-21 07:56 51°9.357 2°35.645 1.2 119 17.1 101980 84
2001-08-21 07:57 51°9.394 2°35.591 1.3 121 17.1 101990 83
2001-08-21 07:58 51°9.425 2°35.532 0.5 124 17.2 101990 83
2001-08-21 07:59 51°9.447 2°35.472 0.3 103 17.2 101990 82
2001-08-21 08:00 51°9.462 2°35.414 1.9 115 17.2 101990 81
2001-08-21 08:01 51°9.475 2°35.359 0.7 109 17.2 101990 81
2001-08-21 08:02 51°9.485 2°35.306 1.4 102 17.3 101990 81
2001-08-21 08:03 51°9.493 2°35.254 1.4 110 17.3 101990 81
2001-08-21 08:04 51°9.491 2°35.216 2.4 124 17.3 101990 81
2001-08-21 08:05 51°9.486 2°35.182 2 118 17.3 101990 80
2001-08-21 08:06 51°9.52 2°35.123 1 238 17.4 101990 80
2001-08-21 08:07 51°9.676 2°35.169 3.9 3 17.4 101990 80
2001-08-21 08:08 51°9.866 2°35.286 3.5 360 17.4 101990 81
2001-08-21 08:09 51°10.056 2°35.41 3.6 357 17.4 101990 80
2001-08-21 08:10 51°10.238 2°35.562 4.2 357 17.5 101990 81
2001-08-21 08:11 51°10.417 2°35.73 4.7 359 17.5 101990 81
2001-08-21 08:12 51°10.59 2°35.903 3.7 352 17.5 101990 81
2001-08-21 08:13 51°10.737 2°36.132 4.7 347 17.5 101990 81
2001-08-21 08:14 51°10.88 2°36.366 4.6 350 17.4 101990 80
2001-08-21 08:15 51°11.025 2°36.597 5 346 17.4 101990 81
2001-08-21 08:16 51°11.164 2°36.836 4.7 346 17.3 101990 80
2001-08-21 08:17 51°11.301 2°37.078 4.3 345 17.3 101990 81
2001-08-21 08:18 51°11.43 2°37.33 4.9 340 17.3 101980 81
2001-08-21 08:19 51°11.557 2°37.582 5.1 344 17.2 101980 81
2001-08-21 08:20 51°11.684 2°37.835 5 347 17.2 101980 81
2001-08-21 08:21 51°11.809 2°38.09 4.9 341 17.2 101980 82
2001-08-21 08:22 51°11.936 2°38.342 4.9 344 17.2 101980 82
2001-08-21 08:23 51°12.062 2°38.595 5.2 347 17.3 101980 82
2001-08-21 08:24 51°12.186 2°38.85 5.6 340 17.3 101980 81
2001-08-21 08:25 51°12.313 2°39.101 5.4 340 17.3 101980 81
2001-08-21 08:26 51°12.439 2°39.352 6.1 341 17.3 101980 81
2001-08-21 08:27 51°12.565 2°39.603 6 344 17.3 101980 81
2001-08-21 08:28 51°12.691 2°39.855 6.1 346 17.3 101980 81
2001-08-21 08:29 51°12.816 2°40.107 5.3 345 17.3 101980 81
2001-08-21 08:30 51°12.941 2°40.359 5.2 341 17.2 101980 81
2001-08-21 08:31 51°13.06 2°40.618 5.1 338 17.2 101990 81
2001-08-21 08:32 51°13.183 2°40.871 5.6 339 17.1 101990 81
2001-08-21 08:33 51°13.308 2°41.123 5.4 345 17.1 101990 80
2001-08-21 08:34 51°13.435 2°41.373 4.8 348 17.2 101990 81
2001-08-21 08:35 51°13.556 2°41.632 5.5 349 17.3 101990 81
2001-08-21 08:36 51°13.681 2°41.882 5 336 17.4 101990 81
2001-08-21 08:37 51°13.815 2°42.122 4.8 344 17.4 101990 81
2001-08-21 08:38 51°13.941 2°42.372 5.1 345 17.4 101990 80
2001-08-21 08:39 51°14.06 2°42.63 5 338 17.5 101990 79
2001-08-21 08:40 51°14.174 2°42.889 5.6 340 17.5 101990 80
2001-08-21 08:41 51°14.284 2°43.155 5.5 343 17.5 101990 78
2001-08-21 08:42 51°14.394 2°43.42 5.6 342 17.6 101990 79
2001-08-21 08:43 51°14.51 2°43.682 5 337 17.6 101990 78
2001-08-21 08:44 51°14.623 2°43.945 5.3 343 17.6 101990 76
2001-08-21 08:45 51°14.731 2°44.215 4.8 338 17.7 101990 77
2001-08-21 08:46 51°14.839 2°44.484 5.8 339 17.7 101990 77
2001-08-21 08:47 51°14.945 2°44.755 5.3 342 17.7 101990 77
2001-08-21 08:48 51°15.053 2°45.028 5.6 340 17.7 101990 75
2001-08-21 08:49 51°15.164 2°45.293 4.8 338 17.7 101980 74
2001-08-21 08:50 51°15.269 2°45.567 5.5 335 17.8 101980 74
2001-08-21 08:51 51°15.385 2°45.833 4.9 342 17.8 101980 74
2001-08-21 08:52 51°15.498 2°46.099 4.9 345 17.9 101980 75
2001-08-21 08:53 51°15.608 2°46.369 4.6 336 17.9 101980 72
2001-08-21 08:54 51°15.721 2°46.641 5 340 17.9 101980 72
2001-08-21 08:55 51°15.836 2°46.911 5.2 336 18 101980 73
2001-08-21 08:56 51°15.945 2°47.188 5.4 345 18 101980 72
2001-08-21 08:57 51°16.05 2°47.472 4.6 336 18 101990 72
2001-08-21 08:58 51°16.148 2°47.763 5 337 18.1 101980 72
2001-08-21 08:59 51°16.237 2°48.06 4.9 332 18.1 101980 72
2001-08-21 09:00 51°16.302 2°48.372 5.6 331 18.1 101980 71
2001-08-21 09:01 51°16.357 2°48.69 6.2 338 18.1 101970 70
2001-08-21 09:02 51°16.41 2°49.009 5.7 333 18.1 101970 70
2001-08-21 09:03 51°16.464 2°49.326 5.9 330 18.2 101970 69
2001-08-21 09:04 51°16.538 2°49.627 3.5 328 18.2 101970 71
2001-08-21 09:05 51°16.718 2°49.76 3.1 349 18.3 101980 73
2001-08-21 09:06 51°16.913 2°49.837 2.4 357 18.4 101980 69
2001-08-21 09:07 51°17.106 2°49.895 3 359 18.4 101980 68
2001-08-21 09:08 51°17.304 2°49.952 4.2 4 18.6 101980 70
2001-08-21 09:09 51°17.509 2°49.969 4.4 13 18.7 101980 71
2001-08-21 09:10 51°17.711 2°50.007 3.8 2 18.7 101980 69
2001-08-21 09:11 51°17.893 2°50.132 2.8 353 18.7 101980 68
2001-08-21 09:12 51°18.055 2°50.317 3.8 351 18.7 101980 70
2001-08-21 09:13 51°18.206 2°50.523 3.3 343 18.8 101980 70
2001-08-21 09:14 51°18.357 2°50.732 4.8 348 18.7 101980 69
2001-08-21 09:15 51°18.495 2°50.93 2.7 321 18.6 101970 68
2001-08-21 09:16 51°18.528 2°51.03 2.2 209 18.5 101970 69
2001-08-21 09:17 51°18.526 2°51.02 2.2 191 18.6 101970 69
2001-08-21 09:18 51°18.523 2°51.001 2.5 176 18.6 101970 69
2001-08-21 09:19 51°18.518 2°50.982 1.9 177 18.8 101970 70
2001-08-21 09:20 51°18.517 2°50.962 0.5 144 19.1 101970 69
2001-08-21 09:21 51°18.563 2°50.936 1.4 127 19.3 101970 67
2001-08-21 09:22 51°18.571 2°50.901 2 128 19.2 101970 67
2001-08-21 09:23 51°18.553 2°50.876 2.2 127 19.1 101970 68
2001-08-21 09:24 51°18.537 2°50.847 1.9 129 19 101970 67
2001-08-21 09:25 51°18.556 2°50.797 1.1 125 18.9 101970 68
2001-08-21 09:26 51°18.589 2°50.758 1.4 134 18.9 101970 68
2001-08-21 09:27 51°18.61 2°50.728 1.2 130 18.9 101970 67
2001-08-21 09:28 51°18.623 2°50.694 1.4 123 18.9 101970 68
2001-08-21 09:29 51°18.63 2°50.655 0.8 110 18.9 101970 67
2001-08-21 09:30 51°18.634 2°50.615 1.6 117 18.9 101970 70
2001-08-21 09:31 51°18.633 2°50.572 0.9 110 18.9 101970 71
2001-08-21 09:32 51°18.631 2°50.531 1 104 18.9 101970 68
2001-08-21 09:33 51°18.631 2°50.486 1 110 18.9 101970 69
2001-08-21 09:34 51°18.646 2°50.429 0.7 103 18.9 101970 68
2001-08-21 09:35 51°18.673 2°50.376 1.1 110 18.9 101970 69
2001-08-21 09:36 51°18.707 2°50.327 0.2 114 18.9 101970 68
2001-08-21 09:37 51°18.748 2°50.286 0.4 109 18.9 101970 69
2001-08-21 09:38 51°18.793 2°50.25 0.8 125 19 101970 68
2001-08-21 09:39 51°18.84 2°50.214 0.7 118 19.1 101960 69
2001-08-21 09:40 51°18.886 2°50.199 1.2 156 19.1 101970 67
2001-08-21 09:41 51°18.929 2°50.209 1 179 19.1 101960 67
2001-08-21 09:42 51°18.974 2°50.221 1.2 141 19.2 101960 68
2001-08-21 09:43 51°19.019 2°50.232 1.3 141 19.3 101960 67
2001-08-21 09:44 51°19.064 2°50.246 1.3 152 19.3 101960 68
2001-08-21 09:45 51°19.109 2°50.262 0.7 137 19.3 101960 66
2001-08-21 09:46 51°19.156 2°50.27 0.7 125 19.3 101960 68
2001-08-21 09:47 51°19.205 2°50.276 0.6 137 19.3 101960 68
2001-08-21 09:48 51°19.254 2°50.282 0.6 136 19.3 101960 67
2001-08-21 09:49 51°19.304 2°50.286 0.8 137 19.3 101960 68
2001-08-21 09:50 51°19.354 2°50.288 0.9 139 19.3 101960 67
2001-08-21 09:51 51°19.404 2°50.292 0.6 141 19.3 101960 67
2001-08-21 09:52 51°19.453 2°50.303 0.6 153 19.5 101960 68
2001-08-21 09:53 51°19.503 2°50.316 1.2 138 19.6 101960 69
2001-08-21 09:54 51°19.554 2°50.321 0.7 121 19.6 101960 66
2001-08-21 09:55 51°19.607 2°50.316 0.3 122 19.6 101960 65
2001-08-21 09:56 51°19.66 2°50.305 0.1 93 19.6 101960 68
2001-08-21 09:57 51°19.713 2°50.298 0.3 76 19.5 101960 68
2001-08-21 09:58 51°19.766 2°50.29 0.8 123 19.4 101960 67
2001-08-21 09:59 51°19.819 2°50.283 0.2 93 19.4 101960 67
2001-08-21 10:00 51°19.872 2°50.269 0.3 94 19.3 101960 68
2001-08-21 10:01 51°19.924 2°50.253 0.3 97 19.3 101960 68
2001-08-21 10:02 51°19.975 2°50.237 1.3 121 19.3 101960 69
2001-08-21 10:03 51°20.024 2°50.233 0.7 134 19.2 101960 67
2001-08-21 10:04 51°20.067 2°50.242 0.3 131 19.3 101960 67
2001-08-21 10:05 51°20.112 2°50.25 1 123 19.4 101960 68
2001-08-21 10:06 51°20.156 2°50.257 0.5 130 19.4 101950 67
2001-08-21 10:07 51°20.196 2°50.277 0.8 134 19.4 101950 67
2001-08-21 10:08 51°20.239 2°50.294 0.5 132 19.5 101950 67
2001-08-21 10:09 51°20.284 2°50.307 0.2 116 19.5 101950 67
2001-08-21 10:10 51°20.36 2°50.335 1.9 38 19.6 101950 67
2001-08-21 10:11 51°20.394 2°50.338 1.1 192 19.6 101960 67
2001-08-21 10:12 51°20.38 2°50.309 2.1 201 19.7 101950 68
2001-08-21 10:13 51°20.365 2°50.269 2.5 212 19.6 101950 69
2001-08-21 10:14 51°20.35 2°50.231 1.6 220 19.4 101950 67
2001-08-21 10:15 51°20.334 2°50.195 2.3 239 19.3 101950 69
2001-08-21 10:16 51°20.317 2°50.174 1.7 254 19.3 101950 69
2001-08-21 10:17 51°20.326 2°50.22 0.3 123 19.4 101950 70
2001-08-21 10:18 51°20.326 2°50.196 1.4 128 19.4 101950 67
2001-08-21 10:19 51°20.325 2°50.163 0.9 100 19.4 101950 68
2001-08-21 10:20 51°20.321 2°50.125 1 112 19.3 101950 68
2001-08-21 10:21 51°20.321 2°50.087 0.9 118 19.2 101950 69
2001-08-21 10:22 51°20.325 2°50.051 0.6 112 19.2 101950 69
2001-08-21 10:23 51°20.334 2°50.014 0.2 103 19.2 101950 70
2001-08-21 10:24 51°20.344 2°49.978 1.6 116 19.2 101950 69
2001-08-21 10:25 51°20.351 2°49.944 1.3 122 19.2 101950 69
2001-08-21 10:26 51°20.356 2°49.905 0.8 103 19.3 101950 69
2001-08-21 10:27 51°20.342 2°49.86 1.7 128 19.2 101940 68
2001-08-21 10:28 51°20.324 2°49.814 1.3 132 19.3 101940 69
2001-08-21 10:29 51°20.307 2°49.769 1.5 127 19.3 101940 68
2001-08-21 10:30 51°20.302 2°49.725 0.1 95 19.3 101940 69
2001-08-21 10:31 51°20.412 2°49.69 5.5 14 19.3 101940 70
2001-08-21 10:32 51°20.609 2°49.703 6.4 12 19.4 101930 68
2001-08-21 10:33 51°20.814 2°49.703 6.2 14 19.5 101930 68
2001-08-21 10:34 51°21.021 2°49.711 6.5 11 19.5 101930 68
2001-08-21 10:35 51°21.227 2°49.725 6.6 13 19.5 101930 68
2001-08-21 10:36 51°21.433 2°49.737 5.9 13 19.5 101930 68
2001-08-21 10:37 51°21.636 2°49.752 5.6 5 19.5 101920 68
2001-08-21 10:38 51°21.842 2°49.74 6 13 19.5 101920 69
2001-08-21 10:39 51°22.047 2°49.731 5.9 13 19.5 101920 68
2001-08-21 10:40 51°22.18 2°49.68 3.5 34 19.5 101920 68
2001-08-21 10:41 51°22.215 2°49.619 0.6 179 19.5 101930 67
2001-08-21 10:42 51°22.206 2°49.58 1.1 202 19.5 101930 68
2001-08-21 10:43 51°22.197 2°49.545 1.3 148 19.7 101920 68
2001-08-21 10:44 51°22.188 2°49.512 1.7 188 19.7 101920 66
2001-08-21 10:45 51°22.179 2°49.479 1.5 189 19.5 101920 67
2001-08-21 10:46 51°22.169 2°49.448 1.7 197 19.5 101920 69
2001-08-21 10:47 51°22.158 2°49.418 1.2 198 19.3 101920 68
2001-08-21 10:48 51°22.147 2°49.388 1 212 19.2 101920 68
2001-08-21 10:49 51°22.134 2°49.36 1 215 19.2 101920 69
2001-08-21 10:50 51°22.121 2°49.33 1.6 235 19.3 101920 70
2001-08-21 10:51 51°22.107 2°49.301 1.5 227 19.4 101920 69
2001-08-21 10:52 51°22.091 2°49.272 1.9 240 19.5 101920 68
2001-08-21 10:53 51°22.076 2°49.242 1.4 251 19.6 101920 67
2001-08-21 10:54 51°22.064 2°49.235 0.9 240 19.7 101920 70
2001-08-21 10:55 51°22.088 2°49.258 0.2 319 19.8 101920 68
2001-08-21 10:56 51°22.146 2°49.239 1.3 35 19.8 101920 68
2001-08-21 10:57 51°22.215 2°49.209 1.1 31 19.9 101920 68
2001-08-21 10:58 51°22.267 2°49.241 1.5 323 20 101910 66
2001-08-21 10:59 51°22.281 2°49.286 1.1 305 19.9 101920 66
2001-08-21 11:00 51°22.28 2°49.324 1.3 292 19.7 101920 68
2001-08-21 11:01 51°22.281 2°49.356 1.2 305 19.6 101920 68
2001-08-21 11:02 51°22.282 2°49.386 1.3 294 19.5 101920 68
2001-08-21 11:03 51°22.28 2°49.416 1.3 320 19.5 101920 70
2001-08-21 11:04 51°22.275 2°49.446 1.2 320 19.4 101920 70
2001-08-21 11:05 51°22.271 2°49.479 0.9 317 19.3 101910 70
2001-08-21 11:06 51°22.27 2°49.51 1.3 319 19.3 101910 70
2001-08-21 11:07 51°22.27 2°49.541 1.4 312 19.3 101910 69
2001-08-21 11:08 51°22.268 2°49.575 1.2 327 19.2 101910 69
2001-08-21 11:09 51°22.265 2°49.608 0.9 316 19.3 101910 70
2001-08-21 11:10 51°22.263 2°49.641 0.8 318 19.3 101910 70
2001-08-21 11:11 51°22.284 2°49.744 2.9 354 19.3 101910 69
2001-08-21 11:12 51°22.33 2°49.824 0.2 355 19.3 101910 70
2001-08-21 11:13 51°22.339 2°49.802 0.1 101 19.6 101910 69
2001-08-21 11:14 51°22.342 2°49.765 0.1 106 19.7 101900 68
2001-08-21 11:15 51°22.342 2°49.726 0.1 100 19.7 101900 67
2001-08-21 11:16 51°22.36 2°49.689 1.7 38 19.8 101900 68
2001-08-21 11:17 51°22.404 2°49.686 0.5 40 20 101900 68
2001-08-21 11:18 51°22.429 2°49.691 0.1 54 20.2 101900 67
2001-08-21 11:19 51°22.454 2°49.701 0.1 74 20.4 101890 67
2001-08-21 11:20 51°22.475 2°49.707 0.1 77 20.6 101890 65
2001-08-21 11:21 51°22.49 2°49.708 0.1 160 20.8 101890 64
2001-08-21 11:22 51°22.499 2°49.706   207 21.1 101900 64
2001-08-21 11:23 51°22.504 2°49.703 0.3 179 21.3 101900 63
2001-08-21 11:24 51°22.509 2°49.696 0.3 154 21.5 101900 62
2001-08-21 11:25 51°22.502 2°49.68 1 147 21.5 101900 61
2001-08-21 11:26 51°22.493 2°49.665 0.3 146 21.5 101900 62
2001-08-21 11:27 51°22.485 2°49.655 1 194 21.5 101900 62
2001-08-21 11:28 51°22.476 2°49.644 0.4 203 21.5 101900 61
2001-08-21 11:29 51°22.471 2°49.654 1 352 21.3 101900 62
2001-08-21 11:30 51°22.586 2°49.712 6.4 3 21 101900 63
2001-08-21 11:31 51°22.787 2°49.656 6.1 5 20.7 101900 64
2001-08-21 11:32 51°22.992 2°49.592 7 4 20.4 101900 65
2001-08-21 11:33 51°23.197 2°49.535 6.6 2 20.2 101900 67
2001-08-21 11:34 51°23.402 2°49.466 6.8 6 20.1 101900 67
2001-08-21 11:35 51°23.606 2°49.383 7.2 2 19.9 101900 67
2001-08-21 11:36 51°23.811 2°49.299 6.7 4 19.9 101900 67
2001-08-21 11:37 51°24.016 2°49.211 7.2 7 19.8 101900 67
2001-08-21 11:38 51°24.165 2°49.149 3.3 17 19.8 101900 68
2001-08-21 11:39 51°24.191 2°49.147 0.1 83 20 101910 68
2001-08-21 11:40 51°24.186 2°49.15 0.1 143 20.2 101910 67
2001-08-21 11:41 51°24.176 2°49.15 0.1 135 20.3 101900 66
2001-08-21 11:42 51°24.166 2°49.148 0.1 230 20.6 101900 66
2001-08-21 11:43 51°24.165 2°49.158 0.5 344 20.9 101900 64
2001-08-21 11:44 51°24.171 2°49.167 0.3 353 21 101900 63
2001-08-21 11:45 51°24.178 2°49.168 0.3 16 21 101900 63
2001-08-21 11:46 51°24.183 2°49.166 0.2 15 21.1 101900 63
2001-08-21 11:47 51°24.187 2°49.164   16 21.2 101900 62
2001-08-21 11:48 51°24.192 2°49.163   56 21.4 101900 62
2001-08-21 11:49 51°24.196 2°49.161   74 21.6 101900 62
2001-08-21 11:50 51°24.201 2°49.159 0.1 85 21.7 101900 61
2001-08-21 11:51 51°24.205 2°49.157 0.3 53 21.8 101890 60
2001-08-21 11:52 51°24.21 2°49.155 0.4 134 21.8 101900 60
2001-08-21 11:53 51°24.215 2°49.154 0.3 133 21.9 101900 60
2001-08-21 11:54 51°24.219 2°49.15 0.4 38 22 101890 60
2001-08-21 11:55 51°24.222 2°49.145 0.4 33 22.1 101900 59
2001-08-21 11:56 51°24.224 2°49.14 0.4 22 22.1 101890 59
2001-08-21 11:57 51°24.221 2°49.135 0.1 23 22.2 101890 59
2001-08-21 11:58 51°24.214 2°49.128 0.4 35 22.2 101890 59
2001-08-21 11:59 51°24.209 2°49.122 0.4 11 22.3 101890 58
2001-08-21 12:00 51°24.203 2°49.118 0.5 41 22.2 101890 58
2001-08-21 12:01 51°24.198 2°49.116 0.6 329 22.2 101890 59
2001-08-21 12:02 51°24.211 2°49.132 1.6 359 22.3 101880 59
2001-08-21 12:03 51°24.261 2°49.153 3 358 22.1 101880 59
2001-08-21 12:04 51°24.347 2°49.144 3.3 359 21.6 101880 61
2001-08-21 12:05 51°24.446 2°49.123 4.4 359 21.2 101880 63
2001-08-21 12:06 51°24.578 2°49.079 5.7 1 20.8 101870 64
2001-08-21 12:07 51°24.749 2°49.027 5.5 358 20.3 101870 65
2001-08-21 12:08 51°24.924 2°48.963 6.2 1 20 101870 67
2001-08-21 12:09 51°25.092 2°48.896 4.7 1 19.8 101870 68
2001-08-21 12:10 51°25.205 2°48.845 3.3 355 19.8 101870 68
2001-08-21 12:11 51°25.295 2°48.8 2.6   19.8 101880 67
2001-08-21 12:12 51°25.38 2°48.775 2.9 359 19.8 101880 68
2001-08-21 12:13 51°25.463 2°48.733 3.6 356 19.9 101880 67
2001-08-21 12:14 51°25.629 2°48.632 6.7 358 19.9 101870 67
2001-08-21 12:15 51°25.836 2°48.526 6.9 359 19.7 101870 68
2001-08-21 12:16 51°26.036 2°48.441 4.6 351 19.7 101870 68
2001-08-21 12:17 51°26.126 2°48.366 1.3 340 19.7 101870 68
2001-08-21 12:18 51°26.133 2°48.356 0.6 298 19.7 101870 67
2001-08-21 12:19 51°26.13 2°48.353 1.1 317 19.7 101870 69
2001-08-21 12:20 51°26.127 2°48.353 0.9 311 19.6 101870 68
2001-08-21 12:21 51°26.124 2°48.354 0.8 322 19.5 101870 70
2001-08-21 12:22 51°26.127 2°48.367 2 358 19.4 101870 69
2001-08-21 12:23 51°26.155 2°48.438 3.1 3 19.4 101870 70
2001-08-21 12:24 51°26.174 2°48.513 2.3 2 19.5 101870 69
2001-08-21 12:25 51°26.187 2°48.579 2 359 19.6 101870 69
2001-08-21 12:26 51°26.201 2°48.635 1.5 358 19.7 101870 68
2001-08-21 12:27 51°26.213 2°48.678 1.4 2 19.8 101870 67
2001-08-21 12:28 51°26.223 2°48.716 1.4 4 20 101870 67
2001-08-21 12:29 51°26.229 2°48.753 1.4 4 20.2 101870 66
2001-08-21 12:30 51°26.233 2°48.789 1.5 5 20.3 101870 66
2001-08-21 12:31 51°26.237 2°48.822 1.4   20.4 101870 66
2001-08-21 12:32 51°26.237 2°48.843 1.2 1 20.6 101870 66
2001-08-21 12:33 51°26.235 2°48.859 1.4 3 20.6 101860 65
2001-08-21 12:34 51°26.234 2°48.878 1.9 11 20.6 101860 64
2001-08-21 12:35 51°26.226 2°48.949 3.7 31 20.6 101860 64
2001-08-21 12:36 51°26.168 2°48.998 1.5 41 20.5 101860 65
2001-08-21 12:37 51°26.117 2°48.937 1.2 350 20.5 101860 65
2001-08-21 12:38 51°26.139 2°48.849 2.2 343 20.5 101860 65
2001-08-21 12:39 51°26.228 2°48.803 4.1 345 20.1 101850 67
2001-08-21 12:40 51°26.342 2°48.742 3.9 347 19.9 101850 68
2001-08-21 12:41 51°26.465 2°48.692 3.9 352 19.8 101850 68
2001-08-21 12:42 51°26.589 2°48.648 4.2 351 19.8 101850 68
2001-08-21 12:43 51°26.717 2°48.611 4.7 345 19.8 101850 67
2001-08-21 12:44 51°26.888 2°48.558 7.4 356 19.8 101850 68
2001-08-21 12:45 51°27.11 2°48.507 6.9 356 19.8 101850 68
2001-08-21 12:46 51°27.334 2°48.458 8.2 360 19.7 101850 67
2001-08-21 12:47 51°27.563 2°48.433 7 357 19.8 101840 68
2001-08-21 12:48 51°27.79 2°48.398 7 354 19.8 101850 68
2001-08-21 12:49 51°28.014 2°48.35 6.8 354 19.8 101850 68
2001-08-21 12:50 51°28.214 2°48.297 4.6 347 19.8 101850 67
2001-08-21 12:51 51°28.299 2°48.284 2.2 328 19.7 101860 68
2001-08-21 12:52 51°28.311 2°48.312 1.8 337 19.6 101860 69
2001-08-21 12:53 51°28.32 2°48.338 1.8 349 19.5 101860 70
2001-08-21 12:54 51°28.329 2°48.368 1.9 356 19.6 101860 71
2001-08-21 12:55 51°28.338 2°48.4 2.1 360 19.7 101860 69
2001-08-21 12:56 51°28.347 2°48.434 2.2 4 19.9 101860 69
2001-08-21 12:57 51°28.357 2°48.469 2.1 14 20.1 101860 67
2001-08-21 12:58 51°28.366 2°48.507 2.2 21 20.2 101860 67
2001-08-21 12:59 51°28.378 2°48.56 2.6 16 20.2 101860 67
2001-08-21 13:00 51°28.392 2°48.621 2.6 17 20.2 101860 67
2001-08-21 13:01 51°28.404 2°48.681 3.2 30 20.3 101860 68
2001-08-21 13:02 51°28.417 2°48.739 2.8 21 20.3 101860 67
2001-08-21 13:03 51°28.429 2°48.796 2.9 17 20.3 101860 67
2001-08-21 13:04 51°28.443 2°48.85 3.1 15 20.3 101860 67
2001-08-21 13:05 51°28.458 2°48.907 2.8 11 20.4 101860 67
2001-08-21 13:06 51°28.472 2°48.961 2.7 8 20.4 101860 68
2001-08-21 13:07 51°28.485 2°49.013 2.3 357 20.4 101860 67
2001-08-21 13:08 51°28.5 2°49.063 2.5 356 20.4 101860 65
2001-08-21 13:09 51°28.599 2°49.126 6.4 348 20.3 101850 66
2001-08-21 13:10 51°28.808 2°49.091 7.6 348 20 101850 68
2001-08-21 13:11 51°29.029 2°48.992 7.3 350 19.8 101840 69
2001-08-21 13:12 51°29.246 2°48.876 7 347 19.8 101840 69
2001-08-21 13:13 51°29.455 2°48.742 7.5 349 19.7 101840 70
2001-08-21 13:14 51°29.667 2°48.617 7.3 347 19.6 101850 69
2001-08-21 13:15 51°29.863 2°48.452 7.2 346 19.5 101840 71
2001-08-21 13:16 51°30.066 2°48.278 7.2 349 19.5 101840 71
2001-08-21 13:17 51°30.256 2°48.111 6.9 350 19.5 101840 70
2001-08-21 13:18 51°30.413 2°48.026 4.5 346 19.5 101850 71
2001-08-21 13:19 51°30.477 2°48.062 2.2 351 19.3 101850 72
2001-08-21 13:20 51°30.483 2°48.073 1.6 354 19.4 101860 72
2001-08-21 13:21 51°30.491 2°48.093 2 343 19.5 101860 71
2001-08-21 13:22 51°30.5 2°48.117 2.3 326 19.5 101860 72
2001-08-21 13:23 51°30.52 2°48.157 3.7 357 19.4 101860 72
2001-08-21 13:24 51°30.555 2°48.218 2.6 4 19.3 101860 72
2001-08-21 13:25 51°30.566 2°48.233 3.8 9 19.4 101860 72
2001-08-21 13:26 51°30.59 2°48.301 3.6 12 19.4 101850 71
2001-08-21 13:27 51°30.612 2°48.368 3.4 12 19.6 101860 71
2001-08-21 13:28 51°30.634 2°48.429 3.5 13 19.7 101850 70
2001-08-21 13:29 51°30.649 2°48.489 3.5 10 19.8 101850 69
2001-08-21 13:30 51°30.667 2°48.548 3.5 10 19.8 101850 69
2001-08-21 13:31 51°30.687 2°48.606 3.4 6 19.8 101850 69
2001-08-21 13:32 51°30.705 2°48.659 3.7 6 19.9 101850 68
2001-08-21 13:33 51°30.725 2°48.713 3.2 360 19.9 101850 69
2001-08-21 13:34 51°30.746 2°48.767 3.7 1 20 101850 69
2001-08-21 13:35 51°30.768 2°48.82 2.2 357 19.9 101850 68
2001-08-21 13:36 51°30.789 2°48.869 3.4 357 19.9 101850 69
2001-08-21 13:37 51°30.836 2°48.942 5.4 341 19.9 101850 68
2001-08-21 13:38 51°31.03 2°48.908 6.6 337 19.6 101840 69
2001-08-21 13:39 51°31.248 2°48.792 6.3 345 19.3 101840 71
2001-08-21 13:40 51°31.462 2°48.681 7.2 344 19.2 101840 72
2001-08-21 13:41 51°31.691 2°48.562 6.6 344 19.2 101840 72
2001-08-21 13:42 51°31.915 2°48.459 7.1 348 19.2 101840 72
2001-08-21 13:43 51°32.148 2°48.389 6.8 347 19.3 101850 72
2001-08-21 13:44 51°32.368 2°48.297 7.3 344 19.2 101840 73
2001-08-21 13:45 51°32.608 2°48.22 6.8 346 19.1 101840 71
2001-08-21 13:46 51°32.84 2°48.151 7.4 348 19.1 101840 73
2001-08-21 13:47 51°33.065 2°48.081 6.4 344 19.1 101850 73
2001-08-21 13:48 51°33.296 2°47.972 6.8 342 19.1 101840 73
2001-08-21 13:49 51°33.516 2°47.852 6.8 342 19.1 101840 73
2001-08-21 13:50 51°33.744 2°47.756 6.7 341 19 101850 71
2001-08-21 13:51 51°33.96 2°47.649 6.4 341 19 101840 73
2001-08-21 13:52 51°34.193 2°47.543 6.3 346 19 101840 73
2001-08-21 13:53 51°34.424 2°47.462 6 344 19 101840 74
2001-08-21 13:54 51°34.646 2°47.389 5.4 341 19.1 101840 74
2001-08-21 13:55 51°34.767 2°47.419 3.1 329 19.1 101850 74
2001-08-21 13:56 51°34.798 2°47.454 2.2 336 19.1 101850 75
2001-08-21 13:57 51°34.825 2°47.487 2.2 330 19 101850 74
2001-08-21 13:58 51°34.852 2°47.522 2.5 329 19 101850 74
2001-08-21 13:59 51°34.88 2°47.56 2.7 330 19 101850 76
2001-08-21 14:00 51°34.918 2°47.624 3.8 359 18.9 101850 74
2001-08-21 14:01 51°34.943 2°47.651 2.2 12 19 101850 73
2001-08-21 14:02 51°34.968 2°47.679 3.8 16 19.3 101850 74
2001-08-21 14:03 51°34.994 2°47.748 3.7 16 19.5 101850 72
2001-08-21 14:04 51°35.015 2°47.812 3.8 25 19.6 101850 71
2001-08-21 14:05 51°35.034 2°47.874 4.6 28 19.7 101850 71
2001-08-21 14:06 51°35.049 2°47.959 4.2 11 19.7 101850 71
2001-08-21 14:07 51°35.072 2°48.051 4 9 19.8 101850 72
2001-08-21 14:08 51°35.096 2°48.129 4 8 19.8 101850 71
2001-08-21 14:09 51°35.12 2°48.214 4.1 11 19.8 101850 72
2001-08-21 14:10 51°35.143 2°48.298 4 13 19.9 101850 72
2001-08-21 14:11 51°35.165 2°48.372 4.2 11 19.9 101840 72
2001-08-21 14:12 51°35.191 2°48.44 4 5 19.8 101840 70
2001-08-21 14:13 51°35.216 2°48.504 4.4 7 19.9 101840 70
2001-08-21 14:14 51°35.204 2°48.665 10.2 33 19.9 101840 71
2001-08-21 14:15 51°35.032 2°48.772 10.3 29 19.7 101830 70
2001-08-21 14:16 51°34.831 2°48.858 8.6 23 19.7 101830 73
2001-08-21 14:17 51°34.628 2°48.925 8.3 28 19.6 101830 73
2001-08-21 14:18 51°34.424 2°48.984 8.5 26 19.6 101830 72
2001-08-21 14:19 51°34.221 2°49.033 8.4 31 19.6 101830 73
2001-08-21 14:20 51°34.018 2°49.051 8.7 29 19.6 101830 73
2001-08-21 14:21 51°33.813 2°49.07 9 29 19.6 101830 73
2001-08-21 14:22 51°33.61 2°49.09 8.9 27 19.6 101820 72
2001-08-21 14:23 51°33.405 2°49.138 8.9 30 19.6 101820 72
2001-08-21 14:24 51°33.201 2°49.153 8.8 25 19.6 101830 73
2001-08-21 14:25 51°32.997 2°49.186 9.2 32 19.6 101830 73
2001-08-21 14:26 51°32.793 2°49.209 9.5 33 19.6 101820 73
2001-08-21 14:27 51°32.59 2°49.241 8.6 29 19.6 101820 74
2001-08-21 14:28 51°32.385 2°49.252 9.3 32 19.6 101830 74
2001-08-21 14:29 51°32.181 2°49.265 8.3 25 19.6 101820 74
2001-08-21 14:30 51°31.984 2°49.264 9.5 33 19.6 101820 74
2001-08-21 14:31 51°31.779 2°49.266 8.3 30 19.5 101820 75
2001-08-21 14:32 51°31.568 2°49.269 8 32 19.5 101820 75
2001-08-21 14:33 51°31.365 2°49.263 8.2 25 19.5 101820 75
2001-08-21 14:34 51°31.169 2°49.282 8.1 28 19.5 101810 75
2001-08-21 14:35 51°30.957 2°49.288 7.5 28 19.5 101820 75
2001-08-21 14:36 51°30.752 2°49.307 8.4 34 19.4 101820 76
2001-08-21 14:37 51°30.547 2°49.344 8.4 29 19.4 101810 76
2001-08-21 14:38 51°30.342 2°49.374 8 28 19.5 101820 76
2001-08-21 14:39 51°30.138 2°49.419 7.9 30 19.4 101810 75
2001-08-21 14:40 51°29.934 2°49.457 8.1 34 19.4 101820 75
2001-08-21 14:41 51°29.737 2°49.509 9 30 19.5 101810 76
2001-08-21 14:42 51°29.527 2°49.57 9.8 36 19.5 101810 76
2001-08-21 14:43 51°29.325 2°49.63 9.5 38 19.5 101810 77
2001-08-21 14:44 51°29.124 2°49.684 9 34 19.5 101810 77
2001-08-21 14:45 51°28.928 2°49.738 8.7 34 19.5 101810 76
2001-08-21 14:46 51°28.719 2°49.795 9 31 19.5 101810 76
2001-08-21 14:47 51°28.514 2°49.846 9.5 37 19.5 101810 73
2001-08-21 14:48 51°28.308 2°49.893 8.8 39 19.6 101810 74
2001-08-21 14:49 51°28.108 2°49.932 8.9 39 19.6 101810 75
2001-08-21 14:50 51°27.896 2°49.974 8.7 41 19.6 101810 75
2001-08-21 14:51 51°27.697 2°50.021 8.9 39 19.7 101800 75
2001-08-21 14:52 51°27.485 2°50.068 6.9 35 19.7 101800 74
2001-08-21 14:53 51°27.279 2°50.105 8 41 19.7 101800 76
2001-08-21 14:54 51°27.072 2°50.145 8.4 40 19.8 101800 76
2001-08-21 14:55 51°26.867 2°50.191 9.3 40 19.7 101800 76
2001-08-21 14:56 51°26.662 2°50.241 7.8 40 19.7 101810 76
2001-08-21 14:57 51°26.459 2°50.296 8.7 41 19.7 101800 76
2001-08-21 14:58 51°26.264 2°50.354 8.6 39 19.8 101810 76
2001-08-21 14:59 51°26.055 2°50.412 7.2 34 19.8 101810 75
2001-08-21 15:00 51°25.852 2°50.476 7.9 32 19.8 101800 75
2001-08-21 15:01 51°25.647 2°50.531 7.9 39 19.8 101810 74
2001-08-21 15:02 51°25.448 2°50.581 8.6 38 19.8 101810 74
2001-08-21 15:03 51°25.235 2°50.627 8.2 40 19.9 101810 75
2001-08-21 15:04 51°25.03 2°50.672 8.3 38 19.9 101810 75
2001-08-21 15:05 51°24.825 2°50.714 7.7 37 19.9 101810 74
2001-08-21 15:06 51°24.62 2°50.785 7.5 35 20 101810 75
2001-08-21 15:07 51°24.422 2°50.859 7.9 38 20 101810 75
2001-08-21 15:08 51°24.211 2°50.941 7.4 43 20 101810 75
2001-08-21 15:09 51°24.004 2°51.007 8.1 35 20 101810 76
2001-08-21 15:10 51°23.796 2°51.07 8.5 41 20 101810 77
2001-08-21 15:11 51°23.589 2°51.139 8 38 20 101810 77
2001-08-21 15:12 51°23.383 2°51.198 8.3 40 20 101810 77
2001-08-21 15:13 51°23.178 2°51.258 6.8 35 20 101810 77
2001-08-21 15:14 51°22.973 2°51.33 8.9 36 19.9 101810 76
2001-08-21 15:15 51°22.766 2°51.404 5.8 40 20 101800 76
2001-08-21 15:16 51°22.565 2°51.469 4.4 317 20 101810 75
2001-08-21 15:17 51°22.362 2°51.532 6 44 20 101810 75
2001-08-21 15:18 51°22.162 2°51.607 4.7 317 20 101810 74
2001-08-21 15:19 51°21.962 2°51.683 5 45 20 101810 73
2001-08-21 15:20 51°21.758 2°51.758 5.6 132 20.1 101810 72
2001-08-21 15:21 51°21.551 2°51.83 7.4 37 20.1 101810 72
2001-08-21 15:22 51°21.342 2°51.911 6.6 44 20.2 101810 73
2001-08-21 15:23 51°21.134 2°51.981 8.1 43 20.2 101810 74
2001-08-21 15:24 51°20.925 2°52.038 8.1 34 20.3 101810 75
2001-08-21 15:25 51°20.716 2°52.094 5.8 38 20.3 101810 75
2001-08-21 15:26 51°20.506 2°52.139 5.1 319 20.2 101810 75
2001-08-21 15:27 51°20.295 2°52.184 7.4 45 20.1 101810 73
2001-08-21 15:28 51°20.083 2°52.234 7.6 321 20.2 101810 73
2001-08-21 15:29 51°19.87 2°52.273 7.4 44 20.2 101800 70
2001-08-21 15:30 51°19.659 2°52.308 6 41 20.2 101800 71
2001-08-21 15:31 51°19.449 2°52.352 5.5 44 20.3 101800 72
2001-08-21 15:32 51°19.24 2°52.361 5.5 35 20.3 101810 70
2001-08-21 15:33 51°19.031 2°52.369 6.6 39 20.3 101800 70
2001-08-21 15:34 51°18.822 2°52.388 6 37 20.3 101810 70
2001-08-21 15:35 51°18.613 2°52.396 5.5 43 20.4 101810 70
2001-08-21 15:36 51°18.404 2°52.397 5.8 41 20.4 101810 71
2001-08-21 15:37 51°18.195 2°52.407 4.7 43 20.4 101810 71
2001-08-21 15:38 51°17.986 2°52.425 5.6 40 20.4 101810 72
2001-08-21 15:39 51°17.778 2°52.442 5.6 41 20.5 101810 72
2001-08-21 15:40 51°17.569 2°52.459 6.2 39 20.5 101810 72
2001-08-21 15:41 51°17.361 2°52.512 6.3 41 20.4 101800 71
2001-08-21 15:42 51°17.157 2°52.616 7.3 33 20.4 101800 71
2001-08-21 15:43 51°16.959 2°52.756 8.5 43 20.4 101800 71
2001-08-21 15:44 51°16.769 2°52.923 8.8 35 20.5 101790 72
2001-08-21 15:45 51°16.575 2°53.094 8 37 20.5 101790 72
2001-08-21 15:46 51°16.378 2°53.252 8.2 39 20.5 101800 73
2001-08-21 15:47 51°16.182 2°53.412 8.7 37 20.4 101800 72
2001-08-21 15:48 51°15.987 2°53.58 7.7 316 20.4 101790 73
2001-08-21 15:49 51°15.788 2°53.732 7.8 38 20.5 101800 74
2001-08-21 15:50 51°15.587 2°53.876 7.1 44 20.4 101790 72
2001-08-21 15:51 51°15.385 2°54.017 7.4 40 20.5 101800 72
2001-08-21 15:52 51°15.189 2°54.178 9.8 37 20.5 101790 73
2001-08-21 15:53 51°15.011 2°54.388 9 40 20.5 101790 73
2001-08-21 15:54 51°14.885 2°54.55 4.6 48 20.4 101800 73
2001-08-21 15:55 51°14.815 2°54.658 3.8 82 20.4 101800 74
2001-08-21 15:56 51°14.759 2°54.736 2.1 302 20.4 101810 75
2001-08-21 15:57 51°14.707 2°54.799 2 306 20.3 101810 72
2001-08-21 15:58 51°14.662 2°54.861 2.2 181 20.4 101810 74
2001-08-21 15:59 51°14.672 2°54.881 2.9 107 20.3 101810 72
2001-08-21 16:00 51°14.661 2°54.901 1.3 128 20.3 101810 72
2001-08-21 16:01 51°14.642 2°54.909 2.7 120 20.3 101810 73
2001-08-21 16:02 51°14.554 2°54.924 4.2 50 20.4 101810 73
2001-08-21 16:03 51°14.375 2°55.027 10.3 27 20.4 101800 73
2001-08-21 16:04 51°14.242 2°55.278 10.7 31 20.5 101800 74
2001-08-21 16:05 51°14.132 2°55.405 3.2 355 20.6 101810 74
2001-08-21 16:06 51°14.051 2°55.461 1.7 150 20.6 101810 72
2001-08-21 16:07 51°13.977 2°55.517 0.8 242 20.6 101810 69
2001-08-21 16:08 51°13.88 2°55.585 4.8 28 20.8 101810 68
2001-08-21 16:09 51°13.786 2°55.665 1.8 35 20.9 101810 63
2001-08-21 16:10 51°13.73 2°55.743 2.5 47 21.2 101810 61
2001-08-21 16:11 51°13.708 2°55.807 1.8 11 21.6 101810 60
2001-08-21 16:12 51°13.693 2°55.864 2.7 21 21.9 101810 59
2001-08-21 16:13 51°13.681 2°55.911 3.8 56 22.2 101810 59
2001-08-21 16:14 51°13.678 2°55.919 2.8 351 22.4 101810 55
2001-08-21 16:15 51°13.677 2°55.922 0.8 251 22.5 101810 53
2001-08-21 16:16 51°13.677 2°55.922 0.5 150 22.6 101810 53
2001-08-21 16:17 51°13.678 2°55.922 1.3 47 22.7 101810 53